Aviation Digital Data Service (ADDS)

Output produced by METARs form (1106 UTC 03 March 2015)
found at http://aviationweather.gov/adds/metars/
 
KPHL 030855Z 0309/0412 33006KT P6SM BKN200 
     FM031300 VRB03KT P6SM BKN100 
     FM031800 15004KT P6SM OVC045 
     FM032000 16004KT 4SM -SNPL OVC025 
     FM032100 16006KT 1SM -PL OVC008 
     FM040000 18006KT 1SM -FZRAPL OVC005 WS020/21040KT 
     FM040200 20008KT 2SM RA BR OVC005 WS015/23050KT 
     FM040800 24008KT 2SM -RADZ BR OVC005 WS020/25040KT